createdAt,value
2018-01-07T00:01:29.853Z,45.90
2018-01-07T00:03:59.632Z,45.08
2018-01-07T00:06:29.141Z,40.22
2018-01-07T00:08:58.186Z,47.50
2018-01-07T00:11:27.358Z,42.15
2018-01-07T00:13:56.347Z,46.17
2018-01-07T00:16:25.684Z,46.90
2018-01-07T00:18:55.230Z,44.88
2018-01-07T00:21:24.252Z,51.78
2018-01-07T00:23:53.221Z,45.92
2018-01-07T00:26:22.204Z,43.67
2018-01-07T00:28:51.560Z,45.10
2018-01-07T00:31:21.274Z,41.45
2018-01-07T00:33:51.085Z,41.35
2018-01-07T00:36:20.889Z,40.45
2018-01-07T00:38:50.841Z,38.10
2018-01-07T00:41:25.988Z,39.28
2018-01-07T00:43:54.953Z,39.65
2018-01-07T00:46:24.060Z,33.20
2018-01-07T00:48:53.062Z,31.95
2018-01-07T00:51:22.018Z,30.33
2018-01-07T00:53:51.770Z,34.55
2018-01-07T00:56:20.793Z,31.50
2018-01-07T00:58:50.022Z,28.45
2018-01-07T01:01:19.802Z,30.02
2018-01-07T01:03:48.844Z,25.10
2018-01-07T01:06:17.868Z,24.83
2018-01-07T01:08:46.852Z,23.02
2018-01-07T01:11:24.981Z,22.87
2018-01-07T01:13:56.910Z,22.05
2018-01-07T01:16:25.894Z,18.65
2018-01-07T01:18:55.007Z,17.35
2018-01-07T01:21:23.998Z,17.00
2018-01-07T01:23:52.989Z,15.35
2018-01-07T01:26:22.652Z,15.85
2018-01-07T01:28:52.400Z,15.55
2018-01-07T01:31:21.400Z,12.50
2018-01-07T01:33:50.402Z,10.02
2018-01-07T01:36:19.402Z,10.13
2018-01-07T01:38:48.476Z,9.88
2018-01-07T01:41:22.033Z,11.75
2018-01-07T01:43:51.786Z,8.38
2018-01-07T01:46:20.722Z,8.85
2018-01-07T01:48:49.912Z,6.85
2018-01-07T01:51:18.890Z,7.93
2018-01-07T01:53:47.881Z,7.40
2018-01-07T01:56:17.616Z,7.12
2018-01-07T01:58:46.565Z,7.20
2018-01-07T02:01:20.138Z,7.62
2018-01-07T02:03:49.894Z,8.40
2018-01-07T02:06:23.804Z,6.68
2018-01-07T02:08:52.750Z,6.82
2018-01-07T02:11:22.508Z,6.80
2018-01-07T02:13:51.460Z,6.32
2018-01-07T02:16:20.477Z,7.05
2018-01-07T02:18:49.494Z,6.45
2018-01-07T02:21:18.569Z,5.82
2018-01-07T02:23:47.577Z,7.03
2018-01-07T02:26:27.005Z,5.03
2018-01-07T02:28:55.985Z,6.37
2018-01-07T02:31:24.948Z,8.48
2018-01-07T02:33:54.748Z,6.80
2018-01-07T02:36:26.408Z,7.40
2018-01-07T02:38:56.166Z,6.47
2018-01-07T02:41:25.160Z,6.82
2018-01-07T02:43:54.140Z,7.62
2018-01-07T02:46:23.899Z,6.00
2018-01-07T02:48:53.800Z,6.93
2018-01-07T02:51:22.740Z,6.40
2018-01-07T02:53:51.728Z,6.45
2018-01-07T02:56:26.205Z,6.93
2018-01-07T02:58:55.189Z,7.18
2018-01-07T03:01:38.768Z,6.87
2018-01-07T03:04:08.579Z,7.70
2018-01-07T03:06:38.304Z,7.50
2018-01-07T03:09:07.276Z,7.00
2018-01-07T03:11:37.031Z,6.25
2018-01-07T03:14:06.016Z,7.87
2018-01-07T03:16:35.017Z,8.00
2018-01-07T03:19:04.020Z,7.68
2018-01-07T03:21:32.979Z,7.95
2018-01-07T03:24:02.022Z,11.05
2018-01-07T03:26:31.044Z,7.60
2018-01-07T03:29:01.048Z,7.32
2018-01-07T03:31:30.827Z,7.07
2018-01-07T03:33:59.800Z,8.02
2018-01-07T03:36:28.761Z,8.88
2018-01-07T03:38:58.515Z,8.27
2018-01-07T03:41:27.432Z,7.85
2018-01-07T03:43:56.374Z,8.85
2018-01-07T03:46:25.304Z,8.18
2018-01-07T03:48:54.493Z,7.90
2018-01-07T03:51:25.934Z,9.30
2018-01-07T03:53:54.917Z,9.32
2018-01-07T03:56:23.857Z,8.30
2018-01-07T03:58:52.844Z,8.18
2018-01-07T04:01:21.802Z,6.85
2018-01-07T04:47:32.009Z,10.05
2018-01-07T04:50:01.921Z,8.68
2018-01-07T04:52:31.730Z,8.65
2018-01-07T04:55:01.405Z,9.38
2018-01-07T04:57:30.358Z,10.23
2018-01-07T04:59:59.356Z,12.23
2018-01-07T05:02:28.313Z,12.25
2018-01-07T05:04:58.089Z,10.30
2018-01-07T05:07:27.031Z,10.82
2018-01-07T05:09:55.976Z,10.38
2018-01-07T05:12:24.879Z,11.10
2018-01-07T05:14:54.632Z,9.13
2018-01-07T05:17:23.607Z,8.20
2018-01-07T05:19:53.339Z,10.23
2018-01-07T05:22:23.029Z,9.55
2018-01-07T05:24:52.770Z,11.45
2018-01-07T05:27:24.591Z,10.70
2018-01-07T05:29:54.274Z,8.88
2018-01-07T05:32:23.232Z,9.98
2018-01-07T05:34:52.208Z,10.15
2018-01-07T05:37:21.972Z,11.15
2018-01-07T05:39:51.036Z,9.05
2018-01-07T05:42:20.878Z,11.18
2018-01-07T05:44:49.812Z,9.20
2018-01-07T05:47:18.768Z,10.00
2018-01-07T05:49:47.741Z,10.55
2018-01-07T05:52:16.759Z,11.50
2018-01-07T05:54:45.757Z,12.77
2018-01-07T05:57:15.509Z,10.13
2018-01-07T05:59:44.445Z,10.98
2018-01-07T06:02:13.512Z,9.95
2018-01-07T06:04:42.491Z,11.70
2018-01-07T06:07:11.498Z,12.25
2018-01-07T06:09:40.460Z,12.13
2018-01-07T06:12:09.487Z,12.70
2018-01-07T06:14:38.463Z,11.48
2018-01-07T06:17:07.492Z,13.85
2018-01-07T06:19:36.463Z,16.52
2018-01-07T06:22:05.402Z,12.77
2018-01-07T06:24:35.160Z,13.25
2018-01-07T06:27:04.180Z,11.38
2018-01-07T06:29:33.148Z,12.45
2018-01-07T06:32:02.122Z,15.23
2018-01-07T06:34:31.077Z,14.80
2018-01-07T06:37:00.816Z,12.82
2018-01-07T06:39:29.760Z,14.52
2018-01-07T06:41:58.733Z,13.27
2018-01-07T06:44:27.674Z,12.13
2018-01-07T06:46:56.685Z,13.07
2018-01-07T06:49:25.668Z,13.82
2018-01-07T06:51:54.672Z,14.30
2018-01-07T06:54:23.843Z,14.10
2018-01-07T06:56:53.555Z,15.70
2018-01-07T06:59:23.306Z,14.87
2018-01-07T07:01:52.348Z,13.90
2018-01-07T07:04:21.357Z,15.07
2018-01-07T07:06:51.147Z,15.82
2018-01-07T07:09:20.124Z,14.05
2018-01-07T07:11:49.100Z,13.57
2018-01-07T07:14:18.068Z,16.33
2018-01-07T07:16:47.069Z,12.02
2018-01-07T07:19:16.022Z,11.77
2018-01-07T07:21:45.783Z,13.75
2018-01-07T07:24:14.771Z,15.50
2018-01-07T07:26:44.520Z,14.40
2018-01-07T07:29:13.477Z,14.87
2018-01-07T07:31:42.526Z,16.75
2018-01-07T07:34:12.223Z,14.02
2018-01-07T07:36:41.972Z,11.10
2018-01-07T07:39:11.049Z,13.00
2018-01-07T07:41:40.796Z,11.05
2018-01-07T07:44:09.797Z,14.10
2018-01-07T07:46:38.797Z,12.00
2018-01-07T07:49:08.556Z,11.35
2018-01-07T07:51:38.255Z,11.07
2018-01-07T07:54:08.013Z,11.10
2018-01-07T07:56:37.070Z,8.27
2018-01-07T07:59:06.855Z,14.32
2018-01-07T08:01:35.837Z,12.45
2018-01-07T08:04:04.806Z,9.52
2018-01-07T08:06:33.778Z,9.05
2018-01-07T08:09:02.831Z,8.07
2018-01-07T08:11:32.636Z,8.98
2018-01-07T08:14:01.665Z,10.50
2018-01-07T08:16:31.438Z,10.60
2018-01-07T08:19:00.425Z,9.80
2018-01-07T08:21:29.425Z,8.80
2018-01-07T08:23:58.448Z,9.88
2018-01-07T08:26:27.449Z,7.55
2018-01-07T08:28:56.404Z,9.15
2018-01-07T08:31:25.398Z,9.98
2018-01-07T08:33:54.464Z,10.02
2018-01-07T08:36:24.244Z,13.65
2018-01-07T08:38:54.020Z,11.07
2018-01-07T08:41:22.976Z,11.77
2018-01-07T08:43:51.955Z,11.90
2018-01-07T08:46:21.209Z,18.50
2018-01-07T08:48:51.024Z,12.05
2018-01-07T08:51:22.744Z,11.18
2018-01-07T08:53:51.744Z,14.15
2018-01-07T08:56:20.841Z,11.93
2018-01-07T08:58:50.478Z,14.25
2018-01-07T09:01:25.318Z,14.50
2018-01-07T09:03:54.475Z,17.77
2018-01-07T09:06:23.488Z,12.37
2018-01-07T09:08:53.058Z,12.05
2018-01-07T09:11:23.290Z,17.75
2018-01-07T09:13:52.478Z,12.95
2018-01-07T09:16:22.437Z,11.30
2018-01-07T09:18:52.243Z,11.30
2018-01-07T09:21:22.045Z,13.60
2018-01-07T09:23:51.034Z,16.45
2018-01-07T09:26:27.901Z,12.63
2018-01-07T09:28:57.978Z,11.20
2018-01-07T09:31:30.995Z,12.77
2018-01-07T09:34:00.267Z,12.45
2018-01-07T09:36:29.330Z,13.62
2018-01-07T09:38:58.591Z,13.90
2018-01-07T09:41:27.552Z,13.32
2018-01-07T09:43:56.529Z,10.50
2018-01-07T09:46:26.232Z,10.25
2018-01-07T09:48:55.937Z,13.02
2018-01-07T09:51:25.770Z,11.30
2018-01-07T09:53:54.782Z,12.10
2018-01-07T09:56:29.217Z,11.60
2018-01-07T09:58:58.236Z,11.90
2018-01-07T10:01:28.048Z,13.15
2018-01-07T10:03:57.114Z,12.55
2018-01-07T10:06:26.132Z,10.30
2018-01-07T10:08:55.230Z,14.20
2018-01-07T10:11:24.223Z,10.45
2018-01-07T10:13:53.324Z,10.38
2018-01-07T10:16:22.372Z,11.25
2018-01-07T10:18:52.226Z,11.85
2018-01-07T10:21:21.242Z,11.45
2018-01-07T10:23:51.032Z,9.07
2018-01-07T10:26:20.073Z,12.77
2018-01-07T10:28:49.146Z,10.98
2018-01-07T10:31:24.655Z,10.35
2018-01-07T10:33:53.779Z,9.27
2018-01-07T10:36:23.591Z,13.07
2018-01-07T10:38:53.499Z,11.02
2018-01-07T10:41:22.540Z,10.18
2018-01-07T10:43:51.588Z,12.23
2018-01-07T10:46:20.592Z,10.57
2018-01-07T10:48:50.450Z,11.52
2018-01-07T10:51:19.500Z,8.32
2018-01-07T10:53:49.319Z,10.38
2018-01-07T10:56:28.475Z,11.90
2018-01-07T10:58:57.501Z,8.63
2018-01-07T11:01:30.725Z,9.05
2018-01-07T11:04:00.716Z,10.63
2018-01-07T11:06:29.725Z,9.02
2018-01-07T11:08:59.858Z,16.52
2018-01-07T11:11:29.669Z,18.75
2018-01-07T11:13:59.446Z,20.08
2018-01-07T11:16:28.661Z,19.45
2018-01-07T11:18:57.774Z,14.07
2018-01-07T11:21:27.581Z,8.55
2018-01-07T11:23:57.344Z,16.02
2018-01-07T11:26:26.369Z,9.02
2018-01-07T11:28:55.421Z,7.97
2018-01-07T11:31:24.651Z,8.00
2018-01-07T11:33:53.817Z,8.77
2018-01-07T11:36:28.457Z,8.13
2018-01-07T11:38:57.503Z,8.15
2018-01-07T11:41:27.300Z,9.27
2018-01-07T11:43:57.101Z,7.43
2018-01-07T11:46:26.125Z,7.93
2018-01-07T11:48:55.888Z,6.25
2018-01-07T11:51:24.899Z,9.20
2018-01-07T11:53:53.948Z,8.57
2018-01-07T11:56:30.006Z,7.30
2018-01-07T11:58:59.020Z,6.80
2018-01-07T12:01:28.136Z,8.70
2018-01-07T12:03:57.951Z,7.00
2018-01-07T12:06:27.058Z,6.78
2018-01-07T12:08:56.114Z,6.90
2018-01-07T12:11:25.269Z,7.80
2018-01-07T12:13:55.034Z,8.10
2018-01-07T12:16:27.978Z,7.80
2018-01-07T12:18:56.964Z,7.80
2018-01-07T12:21:26.827Z,7.95
2018-01-07T12:23:56.630Z,11.02
2018-01-07T12:26:25.641Z,7.53
2018-01-07T12:28:54.825Z,9.25
2018-01-07T12:31:24.631Z,6.95
2018-01-07T12:33:53.663Z,6.30
2018-01-07T12:36:22.703Z,6.00
2018-01-07T12:38:51.780Z,8.07
2018-01-07T12:41:20.924Z,6.90
2018-01-07T12:43:50.250Z,8.38
2018-01-07T12:46:20.099Z,8.68
2018-01-07T12:48:49.868Z,8.00
2018-01-07T12:51:22.714Z,6.45
2018-01-07T12:53:51.773Z,7.12
2018-01-07T12:56:20.766Z,6.70
2018-01-07T12:58:49.777Z,7.22
2018-01-07T13:01:19.101Z,6.65
2018-01-07T13:03:48.438Z,6.68
2018-01-07T13:06:18.309Z,6.53
2018-01-07T13:08:48.094Z,5.97
2018-01-07T13:11:17.847Z,7.15
2018-01-07T13:13:46.957Z,5.93
2018-01-07T13:16:15.953Z,6.62
2018-01-07T13:18:44.981Z,6.22
2018-01-07T13:21:15.081Z,6.47
2018-01-07T13:23:44.867Z,5.43
2018-01-07T13:26:13.973Z,6.78
2018-01-07T13:28:43.053Z,5.80
2018-01-07T13:31:12.083Z,6.60
2018-01-07T13:33:41.277Z,6.43
2018-01-07T13:36:10.399Z,12.88
2018-01-07T13:38:40.213Z,6.12
2018-01-07T13:41:09.237Z,5.70
2018-01-07T13:43:38.353Z,5.90
2018-01-07T13:46:07.317Z,6.70
2018-01-07T13:48:36.378Z,6.15
2018-01-07T13:51:06.158Z,6.12
2018-01-07T13:53:35.954Z,6.70
2018-01-07T13:56:04.998Z,6.47
2018-01-07T13:58:37.046Z,7.03
2018-01-07T14:01:06.105Z,6.22
2018-01-07T14:04:37.780Z,6.95
2018-01-07T14:07:11.562Z,7.65
2018-01-07T14:09:40.565Z,7.93
2018-01-07T14:12:09.565Z,10.10
2018-01-07T14:14:38.580Z,7.55
2018-01-07T14:17:07.610Z,10.35
2018-01-07T14:19:36.680Z,8.30
2018-01-07T14:22:06.508Z,6.00
2018-01-07T14:24:37.823Z,7.75
2018-01-07T14:27:07.696Z,7.40
2018-01-07T14:29:36.717Z,7.45
2018-01-07T14:32:05.660Z,7.78
2018-01-07T14:34:35.435Z,7.22
2018-01-07T14:37:05.313Z,6.85
2018-01-07T14:39:35.078Z,6.68
2018-01-07T14:42:04.901Z,7.53
2018-01-07T14:44:34.700Z,7.03
2018-01-07T14:47:04.538Z,7.90
2018-01-07T14:49:34.792Z,8.98
2018-01-07T14:52:04.700Z,9.02
2018-01-07T14:54:35.731Z,6.50
2018-01-07T14:57:04.844Z,7.55
2018-01-07T14:59:35.772Z,8.30
2018-01-07T15:02:04.866Z,8.50
2018-01-07T15:04:36.168Z,7.12
2018-01-07T15:07:06.024Z,7.90
2018-01-07T15:09:35.045Z,7.72
2018-01-07T15:12:04.163Z,7.47
2018-01-07T15:14:37.280Z,6.72
2018-01-07T15:17:06.389Z,6.55
2018-01-07T15:19:36.252Z,6.45
2018-01-07T15:22:06.379Z,6.43
2018-01-07T15:24:35.466Z,6.12
2018-01-07T15:27:12.085Z,6.70
2018-01-07T15:29:41.969Z,6.75
2018-01-07T15:32:11.975Z,6.00
2018-01-07T15:34:41.871Z,7.53
2018-01-07T15:38:13.659Z,7.28
2018-01-07T15:40:43.505Z,7.87
2018-01-07T15:43:12.641Z,9.10
2018-01-07T15:45:41.664Z,8.18
2018-01-07T15:48:10.769Z,6.45
2018-01-07T15:50:39.896Z,6.85
2018-01-07T15:53:09.716Z,8.63
2018-01-07T15:59:15.459Z,7.70
2018-01-07T16:01:45.267Z,7.37
2018-01-07T16:04:15.136Z,7.72
2018-01-07T16:06:44.212Z,6.70
2018-01-07T16:09:15.456Z,10.55
2018-01-07T16:11:44.591Z,7.05
2018-01-07T16:14:14.175Z,8.60
2018-01-07T16:16:50.275Z,8.63
2018-01-07T16:19:20.025Z,6.87
2018-01-07T16:21:49.170Z,8.93
2018-01-07T16:24:19.080Z,7.97
2018-01-07T16:26:48.151Z,8.00
2018-01-07T16:29:17.156Z,10.50
2018-01-07T16:31:47.038Z,9.65
2018-01-07T16:34:16.067Z,10.00
2018-01-07T16:36:45.875Z,7.62
2018-01-07T16:39:14.939Z,8.77
2018-01-07T16:41:44.052Z,8.40
2018-01-07T16:44:13.190Z,9.65
2018-01-07T16:46:45.807Z,7.60
2018-01-07T16:49:14.975Z,10.48
2018-01-07T16:51:44.940Z,12.45
2018-01-07T16:54:15.045Z,13.35
2018-01-07T16:56:44.154Z,8.63
2018-01-07T16:59:13.226Z,9.80
2018-01-07T17:01:43.284Z,9.70
2018-01-07T17:04:12.391Z,11.07
2018-01-07T17:06:42.223Z,10.82
2018-01-07T17:09:12.118Z,12.75
2018-01-07T17:11:42.028Z,8.80
2018-01-07T17:14:11.098Z,9.73
2018-01-07T17:16:40.864Z,9.43
2018-01-07T17:19:10.844Z,8.50
2018-01-07T17:21:40.101Z,9.38
2018-01-07T17:24:09.157Z,9.38
2018-01-07T17:26:38.956Z,10.05
2018-01-07T17:29:07.942Z,9.00
2018-01-07T17:31:37.734Z,9.30
2018-01-07T17:34:06.800Z,8.73
2018-01-07T17:36:43.085Z,9.30
2018-01-07T17:39:12.078Z,9.60
2018-01-07T17:41:41.147Z,11.25
2018-01-07T17:44:10.177Z,12.45
2018-01-07T17:46:39.349Z,12.55
2018-01-07T17:49:08.383Z,16.33
2018-01-07T17:51:38.279Z,19.90
2018-01-07T17:54:08.227Z,14.93
2018-01-07T17:59:12.630Z,15.68
2018-01-07T18:01:41.673Z,13.52
2018-01-07T18:04:11.488Z,13.98
2018-01-07T18:06:40.501Z,14.50
2018-01-07T18:09:09.652Z,14.02
2018-01-07T18:11:38.640Z,14.32
2018-01-07T18:14:07.770Z,14.75
2018-01-07T18:16:36.864Z,14.07
2018-01-07T18:19:06.047Z,16.02
2018-01-07T18:21:36.023Z,12.68
2018-01-07T18:24:05.128Z,13.65
2018-01-07T18:26:34.169Z,15.52
2018-01-07T18:29:03.500Z,15.45
2018-01-07T18:31:32.541Z,15.95
2018-01-07T18:34:02.384Z,16.10
2018-01-07T18:36:31.510Z,15.80
2018-01-07T18:40:19.922Z,16.45
2018-01-07T18:42:49.781Z,17.10
2018-01-07T18:45:18.865Z,15.50
2018-01-07T18:47:48.040Z,15.52
2018-01-07T18:50:17.229Z,17.98
2018-01-07T18:52:46.384Z,13.98
2018-01-07T18:55:16.232Z,16.15
2018-01-07T18:57:46.356Z,15.80
2018-01-07T19:00:15.401Z,14.52
2018-01-07T19:02:44.476Z,14.82
2018-01-07T19:05:13.588Z,12.52
2018-01-07T19:07:42.718Z,15.18
2018-01-07T19:10:12.672Z,15.38
2018-01-07T19:12:41.735Z,18.37
2018-01-07T19:15:11.755Z,17.15
2018-01-07T19:17:41.979Z,16.17
2018-01-07T19:20:11.368Z,16.62
2018-01-07T19:22:41.230Z,14.50
2018-01-07T19:25:10.379Z,14.63
2018-01-07T19:27:41.567Z,14.02
2018-01-07T19:30:10.699Z,15.32
2018-01-07T19:32:39.884Z,17.10
2018-01-07T19:35:09.165Z,16.27
2018-01-07T19:37:39.190Z,17.65
2018-01-07T19:40:08.505Z,15.48
2018-01-07T19:42:37.973Z,15.55
2018-01-07T19:45:07.242Z,17.58
2018-01-07T19:47:37.683Z,17.42
2018-01-07T19:50:09.260Z,14.52
2018-01-07T19:52:38.835Z,16.00
2018-01-07T19:55:08.951Z,14.45
2018-01-07T19:57:38.961Z,14.90
2018-01-07T20:00:13.844Z,16.20
2018-01-07T20:02:43.190Z,17.50
2018-01-07T20:05:14.554Z,16.85
2018-01-07T20:07:43.796Z,14.93
2018-01-07T20:10:13.349Z,17.27
2018-01-07T20:12:43.257Z,20.58
2018-01-07T20:15:13.570Z,17.62
2018-01-07T20:17:43.168Z,15.63
2018-01-07T20:20:15.877Z,16.27
2018-01-07T20:22:45.950Z,18.25
2018-01-07T20:25:15.888Z,16.48
2018-01-07T20:27:45.060Z,19.12
2018-01-07T20:30:16.165Z,20.48
2018-01-07T20:32:45.404Z,21.67
2018-01-07T20:35:14.558Z,21.00
2018-01-07T20:37:43.705Z,17.60
2018-01-07T20:40:13.708Z,21.30
2018-01-07T20:42:44.702Z,20.62
2018-01-07T20:45:13.832Z,16.62
2018-01-07T20:47:43.058Z,14.75
2018-01-07T20:50:12.434Z,20.25
2018-01-07T20:52:41.586Z,17.33
2018-01-07T20:55:11.581Z,25.48
2018-01-07T20:57:40.827Z,18.33
2018-01-07T21:00:13.174Z,15.85
2018-01-07T21:02:46.889Z,15.57
2018-01-07T21:05:16.067Z,17.75
2018-01-07T21:07:46.038Z,19.15
2018-01-07T21:10:15.184Z,17.95
2018-01-07T21:12:45.511Z,19.92
2018-01-07T21:15:15.857Z,17.90
2018-01-07T21:17:44.986Z,17.95
2018-01-07T21:20:14.969Z,20.20
2018-01-07T21:22:44.069Z,16.92
2018-01-07T21:25:13.130Z,17.45
2018-01-07T21:27:42.916Z,21.80
2018-01-07T21:30:12.070Z,20.85
2018-01-07T21:32:41.143Z,18.27
2018-01-07T21:35:10.284Z,19.92
2018-01-07T21:37:39.385Z,17.60
2018-01-07T21:40:08.493Z,17.87
2018-01-07T21:42:37.587Z,22.85
2018-01-07T21:45:06.772Z,18.02
2018-01-07T21:47:35.921Z,19.85
2018-01-07T21:50:05.806Z,21.12
2018-01-07T21:52:34.863Z,21.33
2018-01-07T21:55:03.905Z,18.60
2018-01-07T21:57:33.674Z,21.48
2018-01-07T22:00:11.456Z,21.55
2018-01-07T22:02:44.957Z,21.87
2018-01-07T22:05:16.328Z,21.37
2018-01-07T22:07:45.802Z,21.40
2018-01-07T22:10:16.843Z,23.12
2018-01-07T22:12:46.713Z,20.27
2018-01-07T22:15:15.712Z,21.02
2018-01-07T22:17:50.349Z,21.08
2018-01-07T22:20:20.176Z,24.58
2018-01-07T22:22:50.012Z,24.63
2018-01-07T22:25:19.006Z,20.85
2018-01-07T22:27:48.084Z,23.92
2018-01-07T22:30:17.877Z,22.35
2018-01-07T22:32:47.671Z,21.70
2018-01-07T22:35:16.676Z,20.95
2018-01-07T22:37:46.513Z,20.37
2018-01-07T22:40:15.456Z,22.37
2018-01-07T22:42:44.468Z,21.73
2018-01-07T22:45:13.415Z,21.35
2018-01-07T22:47:46.549Z,20.77
2018-01-07T22:50:15.568Z,21.48
2018-01-07T22:52:44.599Z,26.30
2018-01-07T22:55:13.584Z,23.85
2018-01-07T22:57:42.637Z,24.20
2018-01-07T23:00:11.748Z,20.20
2018-01-07T23:02:40.779Z,22.02
2018-01-07T23:05:09.808Z,24.00
2018-01-07T23:07:39.660Z,21.80
2018-01-07T23:10:08.790Z,22.45
2018-01-07T23:12:44.574Z,22.23
2018-01-07T23:15:14.376Z,19.50
2018-01-07T23:17:44.804Z,19.73
2018-01-07T23:20:14.917Z,21.42
2018-01-07T23:22:43.989Z,23.83
2018-01-07T23:25:13.351Z,18.92
2018-01-07T23:27:42.604Z,24.70
2018-01-07T23:30:11.683Z,21.50
2018-01-07T23:32:40.752Z,20.42
2018-01-07T23:35:09.769Z,19.35
2018-01-07T23:37:38.724Z,23.62
2018-01-07T23:40:07.697Z,21.55
2018-01-07T23:42:37.432Z,21.00
2018-01-07T23:45:06.463Z,21.75
2018-01-07T23:47:35.479Z,21.85
2018-01-07T23:50:04.802Z,24.12
2018-01-07T23:52:34.539Z,25.62
2018-01-07T23:55:03.506Z,20.85
2018-01-07T23:57:33.296Z,21.08
